sensor_id;sensor_type;location;lat;lon;timestamp;P1;durP1;ratioP1;P2;durP2;ratioP2
2674;SDS011;1347;42.122;24.746;2024-01-07T00:02:24;61.30;;;45.50;;
2674;SDS011;1347;42.122;24.746;2024-01-07T00:04:51;59.40;;;42.83;;
2674;SDS011;1347;42.122;24.746;2024-01-07T00:07:18;62.17;;;45.03;;
2674;SDS011;1347;42.122;24.746;2024-01-07T00:09:46;61.50;;;43.00;;
2674;SDS011;1347;42.122;24.746;2024-01-07T00:12:13;55.10;;;42.63;;
2674;SDS011;1347;42.122;24.746;2024-01-07T00:14:40;63.40;;;42.20;;
2674;SDS011;1347;42.122;24.746;2024-01-07T00:17:07;63.00;;;43.60;;
2674;SDS011;1347;42.122;24.746;2024-01-07T00:19:35;59.00;;;42.10;;
2674;SDS011;1347;42.122;24.746;2024-01-07T00:22:03;57.00;;;40.00;;
2674;SDS011;1347;42.122;24.746;2024-01-07T00:24:30;59.40;;;40.40;;
2674;SDS011;1347;42.122;24.746;2024-01-07T00:26:57;55.93;;;41.80;;
2674;SDS011;1347;42.122;24.746;2024-01-07T00:29:24;52.73;;;41.40;;
2674;SDS011;1347;42.122;24.746;2024-01-07T00:31:50;56.57;;;39.93;;
2674;SDS011;1347;42.122;24.746;2024-01-07T00:34:17;52.63;;;38.10;;
2674;SDS011;1347;42.122;24.746;2024-01-07T00:36:46;48.83;;;37.30;;
2674;SDS011;1347;42.122;24.746;2024-01-07T00:39:12;50.10;;;38.73;;
2674;SDS011;1347;42.122;24.746;2024-01-07T00:41:39;44.70;;;35.83;;
2674;SDS011;1347;42.122;24.746;2024-01-07T00:44:06;59.93;;;37.37;;
2674;SDS011;1347;42.122;24.746;2024-01-07T00:46:33;51.63;;;37.20;;
2674;SDS011;1347;42.122;24.746;2024-01-07T00:49:00;50.70;;;36.47;;
2674;SDS011;1347;42.122;24.746;2024-01-07T00:51:26;52.20;;;36.13;;
2674;SDS011;1347;42.122;24.746;2024-01-07T00:53:54;57.60;;;37.40;;
2674;SDS011;1347;42.122;24.746;2024-01-07T00:59:42;49.00;;;34.93;;
2674;SDS011;1347;42.122;24.746;2024-01-07T01:05:31;49.47;;;34.67;;
2674;SDS011;1347;42.122;24.746;2024-01-07T01:07:57;46.77;;;36.20;;
2674;SDS011;1347;42.122;24.746;2024-01-07T01:10:26;49.63;;;34.30;;
2674;SDS011;1347;42.122;24.746;2024-01-07T01:12:53;51.90;;;35.70;;
2674;SDS011;1347;42.122;24.746;2024-01-07T01:15:20;46.70;;;36.07;;
2674;SDS011;1347;42.122;24.746;2024-01-07T01:17:47;50.63;;;36.73;;
2674;SDS011;1347;42.122;24.746;2024-01-07T01:20:13;52.70;;;37.00;;
2674;SDS011;1347;42.122;24.746;2024-01-07T01:22:40;51.90;;;35.83;;
2674;SDS011;1347;42.122;24.746;2024-01-07T01:25:07;50.13;;;36.97;;
2674;SDS011;1347;42.122;24.746;2024-01-07T01:27:36;55.97;;;39.67;;
2674;SDS011;1347;42.122;24.746;2024-01-07T01:30:03;50.77;;;36.57;;
2674;SDS011;1347;42.122;24.746;2024-01-07T01:32:31;50.20;;;36.47;;
2674;SDS011;1347;42.122;24.746;2024-01-07T01:34:58;51.00;;;34.90;;
2674;SDS011;1347;42.122;24.746;2024-01-07T01:37:25;52.87;;;38.13;;
2674;SDS011;1347;42.122;24.746;2024-01-07T01:39:51;49.27;;;35.93;;
2674;SDS011;1347;42.122;24.746;2024-01-07T01:42:18;51.67;;;37.37;;
2674;SDS011;1347;42.122;24.746;2024-01-07T01:44:47;55.07;;;39.97;;
2674;SDS011;1347;42.122;24.746;2024-01-07T01:47:14;52.90;;;36.10;;
2674;SDS011;1347;42.122;24.746;2024-01-07T01:49:41;55.40;;;37.37;;
2674;SDS011;1347;42.122;24.746;2024-01-07T01:52:08;54.13;;;39.80;;
2674;SDS011;1347;42.122;24.746;2024-01-07T01:54:36;57.67;;;37.87;;
2674;SDS011;1347;42.122;24.746;2024-01-07T01:57:03;51.73;;;38.07;;
2674;SDS011;1347;42.122;24.746;2024-01-07T01:59:31;59.03;;;37.30;;
2674;SDS011;1347;42.122;24.746;2024-01-07T02:02:01;59.03;;;38.90;;
2674;SDS011;1347;42.122;24.746;2024-01-07T02:04:28;50.77;;;34.87;;
2674;SDS011;1347;42.122;24.746;2024-01-07T02:06:55;46.70;;;32.47;;
2674;SDS011;1347;42.122;24.746;2024-01-07T02:09:22;50.93;;;36.13;;
2674;SDS011;1347;42.122;24.746;2024-01-07T02:12:00;55.90;;;37.57;;
2674;SDS011;1347;42.122;24.746;2024-01-07T02:14:27;51.17;;;35.70;;
2674;SDS011;1347;42.122;24.746;2024-01-07T02:16:54;52.13;;;38.20;;
2674;SDS011;1347;42.122;24.746;2024-01-07T02:19:22;55.70;;;37.60;;
2674;SDS011;1347;42.122;24.746;2024-01-07T02:21:50;52.37;;;38.53;;
2674;SDS011;1347;42.122;24.746;2024-01-07T02:24:18;50.33;;;38.07;;
2674;SDS011;1347;42.122;24.746;2024-01-07T02:26:45;51.30;;;36.73;;
2674;SDS011;1347;42.122;24.746;2024-01-07T02:29:12;57.83;;;39.67;;
2674;SDS011;1347;42.122;24.746;2024-01-07T02:31:39;52.83;;;37.43;;
2674;SDS011;1347;42.122;24.746;2024-01-07T02:34:06;57.67;;;39.80;;
2674;SDS011;1347;42.122;24.746;2024-01-07T02:36:35;55.23;;;39.80;;
2674;SDS011;1347;42.122;24.746;2024-01-07T02:39:01;56.60;;;37.93;;
2674;SDS011;1347;42.122;24.746;2024-01-07T02:41:30;45.97;;;35.83;;
2674;SDS011;1347;42.122;24.746;2024-01-07T02:43:57;51.30;;;38.27;;
2674;SDS011;1347;42.122;24.746;2024-01-07T02:46:24;57.10;;;40.67;;
2674;SDS011;1347;42.122;24.746;2024-01-07T02:48:50;54.03;;;37.30;;
2674;SDS011;1347;42.122;24.746;2024-01-07T02:51:17;53.53;;;36.33;;
2674;SDS011;1347;42.122;24.746;2024-01-07T02:53:44;55.10;;;38.37;;
2674;SDS011;1347;42.122;24.746;2024-01-07T02:56:11;51.40;;;37.40;;
2674;SDS011;1347;42.122;24.746;2024-01-07T02:58:39;54.43;;;37.80;;
2674;SDS011;1347;42.122;24.746;2024-01-07T03:01:08;64.27;;;37.23;;
2674;SDS011;1347;42.122;24.746;2024-01-07T03:03:35;60.03;;;36.80;;
2674;SDS011;1347;42.122;24.746;2024-01-07T03:06:03;56.67;;;37.60;;
2674;SDS011;1347;42.122;24.746;2024-01-07T03:08:30;49.80;;;35.70;;
2674;SDS011;1347;42.122;24.746;2024-01-07T03:10:57;56.50;;;37.03;;
2674;SDS011;1347;42.122;24.746;2024-01-07T03:13:23;61.77;;;36.13;;
2674;SDS011;1347;42.122;24.746;2024-01-07T03:15:52;55.23;;;37.03;;
2674;SDS011;1347;42.122;24.746;2024-01-07T03:18:18;50.47;;;35.60;;
2674;SDS011;1347;42.122;24.746;2024-01-07T03:20:45;54.13;;;34.80;;
2674;SDS011;1347;42.122;24.746;2024-01-07T03:23:12;41.43;;;28.90;;
2674;SDS011;1347;42.122;24.746;2024-01-07T03:25:39;40.27;;;27.97;;
2674;SDS011;1347;42.122;24.746;2024-01-07T03:28:06;43.63;;;27.90;;
2674;SDS011;1347;42.122;24.746;2024-01-07T03:30:33;43.60;;;31.87;;
2674;SDS011;1347;42.122;24.746;2024-01-07T03:33:01;40.93;;;28.67;;
2674;SDS011;1347;42.122;24.746;2024-01-07T03:35:28;39.07;;;29.20;;
2674;SDS011;1347;42.122;24.746;2024-01-07T03:37:55;40.80;;;29.67;;
2674;SDS011;1347;42.122;24.746;2024-01-07T03:40:22;38.97;;;28.03;;
2674;SDS011;1347;42.122;24.746;2024-01-07T03:42:49;39.73;;;28.83;;
2674;SDS011;1347;42.122;24.746;2024-01-07T03:45:16;44.70;;;35.30;;
2674;SDS011;1347;42.122;24.746;2024-01-07T03:47:42;51.20;;;36.47;;
2674;SDS011;1347;42.122;24.746;2024-01-07T03:50:11;48.63;;;35.10;;
2674;SDS011;1347;42.122;24.746;2024-01-07T03:52:37;43.37;;;36.10;;
2674;SDS011;1347;42.122;24.746;2024-01-07T03:55:05;48.27;;;34.87;;
2674;SDS011;1347;42.122;24.746;2024-01-07T03:57:32;51.03;;;33.87;;
2674;SDS011;1347;42.122;24.746;2024-01-07T03:59:59;54.60;;;35.40;;
2674;SDS011;1347;42.122;24.746;2024-01-07T04:02:26;59.20;;;37.30;;
2674;SDS011;1347;42.122;24.746;2024-01-07T04:04:53;48.63;;;37.97;;
2674;SDS011;1347;42.122;24.746;2024-01-07T04:07:21;57.03;;;36.70;;
2674;SDS011;1347;42.122;24.746;2024-01-07T04:09:48;45.70;;;34.00;;
2674;SDS011;1347;42.122;24.746;2024-01-07T04:12:15;47.17;;;35.13;;
2674;SDS011;1347;42.122;24.746;2024-01-07T04:14:42;47.60;;;36.37;;
2674;SDS011;1347;42.122;24.746;2024-01-07T04:17:09;48.27;;;34.83;;
2674;SDS011;1347;42.122;24.746;2024-01-07T04:19:36;43.40;;;32.67;;
2674;SDS011;1347;42.122;24.746;2024-01-07T04:22:03;44.43;;;32.83;;
2674;SDS011;1347;42.122;24.746;2024-01-07T04:24:32;46.03;;;36.20;;
2674;SDS011;1347;42.122;24.746;2024-01-07T04:26:59;49.97;;;36.13;;
2674;SDS011;1347;42.122;24.746;2024-01-07T04:29:25;50.13;;;35.50;;
2674;SDS011;1347;42.122;24.746;2024-01-07T04:31:52;42.73;;;33.40;;
2674;SDS011;1347;42.122;24.746;2024-01-07T04:34:19;46.13;;;34.67;;
2674;SDS011;1347;42.122;24.746;2024-01-07T04:36:46;49.63;;;36.43;;
2674;SDS011;1347;42.122;24.746;2024-01-07T04:39:13;48.13;;;37.10;;
2674;SDS011;1347;42.122;24.746;2024-01-07T04:41:41;42.10;;;34.97;;
2674;SDS011;1347;42.122;24.746;2024-01-07T04:44:09;52.80;;;37.57;;
2674;SDS011;1347;42.122;24.746;2024-01-07T04:46:37;47.60;;;35.30;;
2674;SDS011;1347;42.122;24.746;2024-01-07T04:49:05;48.40;;;35.70;;
2674;SDS011;1347;42.122;24.746;2024-01-07T04:51:32;47.13;;;36.77;;
2674;SDS011;1347;42.122;24.746;2024-01-07T04:54:01;48.37;;;37.63;;
2674;SDS011;1347;42.122;24.746;2024-01-07T04:56:28;49.33;;;36.13;;
2674;SDS011;1347;42.122;24.746;2024-01-07T04:58:56;48.83;;;35.67;;
2674;SDS011;1347;42.122;24.746;2024-01-07T05:01:23;47.37;;;36.60;;
2674;SDS011;1347;42.122;24.746;2024-01-07T05:03:50;49.13;;;38.10;;
2674;SDS011;1347;42.122;24.746;2024-01-07T05:06:17;55.93;;;39.80;;
2674;SDS011;1347;42.122;24.746;2024-01-07T05:08:44;62.50;;;40.30;;
2674;SDS011;1347;42.122;24.746;2024-01-07T05:11:11;51.40;;;36.60;;
2674;SDS011;1347;42.122;24.746;2024-01-07T05:13:37;50.27;;;37.17;;
2674;SDS011;1347;42.122;24.746;2024-01-07T05:16:06;48.40;;;36.03;;
2674;SDS011;1347;42.122;24.746;2024-01-07T05:18:33;51.07;;;37.80;;
2674;SDS011;1347;42.122;24.746;2024-01-07T05:21:00;53.23;;;36.17;;
2674;SDS011;1347;42.122;24.746;2024-01-07T05:23:26;49.00;;;37.10;;
2674;SDS011;1347;42.122;24.746;2024-01-07T05:25:53;56.23;;;40.53;;
2674;SDS011;1347;42.122;24.746;2024-01-07T05:28:20;57.40;;;40.97;;
2674;SDS011;1347;42.122;24.746;2024-01-07T05:30:48;56.33;;;38.37;;
2674;SDS011;1347;42.122;24.746;2024-01-07T05:33:17;57.27;;;40.47;;
2674;SDS011;1347;42.122;24.746;2024-01-07T05:35:43;44.63;;;38.07;;
2674;SDS011;1347;42.122;24.746;2024-01-07T05:38:10;49.10;;;36.67;;
2674;SDS011;1347;42.122;24.746;2024-01-07T05:40:37;45.03;;;37.10;;
2674;SDS011;1347;42.122;24.746;2024-01-07T05:43:04;60.90;;;34.70;;
2674;SDS011;1347;42.122;24.746;2024-01-07T05:45:31;53.83;;;36.90;;
2674;SDS011;1347;42.122;24.746;2024-01-07T05:47:57;52.33;;;39.17;;
2674;SDS011;1347;42.122;24.746;2024-01-07T05:50:26;50.73;;;38.17;;
2674;SDS011;1347;42.122;24.746;2024-01-07T05:52:53;54.63;;;37.60;;
2674;SDS011;1347;42.122;24.746;2024-01-07T05:55:19;53.53;;;37.57;;
2674;SDS011;1347;42.122;24.746;2024-01-07T05:57:46;52.73;;;38.53;;
2674;SDS011;1347;42.122;24.746;2024-01-07T06:00:14;66.87;;;44.10;;
2674;SDS011;1347;42.122;24.746;2024-01-07T06:02:41;59.43;;;42.20;;
2674;SDS011;1347;42.122;24.746;2024-01-07T06:05:08;60.67;;;43.27;;
2674;SDS011;1347;42.122;24.746;2024-01-07T06:07:36;61.63;;;42.70;;
2674;SDS011;1347;42.122;24.746;2024-01-07T06:10:03;54.90;;;40.17;;
2674;SDS011;1347;42.122;24.746;2024-01-07T06:12:31;51.67;;;40.10;;
2674;SDS011;1347;42.122;24.746;2024-01-07T06:14:58;52.93;;;35.23;;
2674;SDS011;1347;42.122;24.746;2024-01-07T06:17:25;47.93;;;34.40;;
2674;SDS011;1347;42.122;24.746;2024-01-07T06:19:56;51.13;;;38.20;;
2674;SDS011;1347;42.122;24.746;2024-01-07T06:22:31;56.90;;;36.10;;
2674;SDS011;1347;42.122;24.746;2024-01-07T06:24:59;49.70;;;36.07;;
2674;SDS011;1347;42.122;24.746;2024-01-07T06:27:26;53.03;;;37.77;;
2674;SDS011;1347;42.122;24.746;2024-01-07T06:29:53;59.27;;;41.23;;
2674;SDS011;1347;42.122;24.746;2024-01-07T06:32:19;56.07;;;39.87;;
2674;SDS011;1347;42.122;24.746;2024-01-07T06:34:46;54.53;;;38.20;;
2674;SDS011;1347;42.122;24.746;2024-01-07T06:37:14;48.80;;;39.03;;
2674;SDS011;1347;42.122;24.746;2024-01-07T06:39:41;52.20;;;40.67;;
2674;SDS011;1347;42.122;24.746;2024-01-07T06:42:09;54.50;;;42.73;;
2674;SDS011;1347;42.122;24.746;2024-01-07T06:44:36;58.33;;;41.80;;
2674;SDS011;1347;42.122;24.746;2024-01-07T06:47:03;56.17;;;42.23;;
2674;SDS011;1347;42.122;24.746;2024-01-07T06:49:30;50.90;;;42.40;;
2674;SDS011;1347;42.122;24.746;2024-01-07T06:51:57;50.70;;;39.13;;
2674;SDS011;1347;42.122;24.746;2024-01-07T06:54:24;55.13;;;39.07;;
2674;SDS011;1347;42.122;24.746;2024-01-07T06:56:51;52.40;;;38.80;;
2674;SDS011;1347;42.122;24.746;2024-01-07T06:59:20;50.57;;;38.83;;
2674;SDS011;1347;42.122;24.746;2024-01-07T07:01:47;49.13;;;35.30;;
2674;SDS011;1347;42.122;24.746;2024-01-07T07:04:14;45.23;;;34.60;;
2674;SDS011;1347;42.122;24.746;2024-01-07T07:06:41;55.30;;;36.40;;
2674;SDS011;1347;42.122;24.746;2024-01-07T07:09:08;52.10;;;41.83;;
2674;SDS011;1347;42.122;24.746;2024-01-07T07:11:36;56.00;;;42.23;;
2674;SDS011;1347;42.122;24.746;2024-01-07T07:14:03;53.03;;;41.00;;
2674;SDS011;1347;42.122;24.746;2024-01-07T07:16:32;47.50;;;35.37;;
2674;SDS011;1347;42.122;24.746;2024-01-07T07:18:59;49.47;;;38.10;;
2674;SDS011;1347;42.122;24.746;2024-01-07T07:21:26;46.20;;;34.70;;
2674;SDS011;1347;42.122;24.746;2024-01-07T07:23:53;44.40;;;36.27;;
2674;SDS011;1347;42.122;24.746;2024-01-07T07:26:20;52.23;;;41.03;;
2674;SDS011;1347;42.122;24.746;2024-01-07T07:28:47;50.23;;;37.87;;
2674;SDS011;1347;42.122;24.746;2024-01-07T07:31:13;46.60;;;36.43;;
2674;SDS011;1347;42.122;24.746;2024-01-07T07:33:42;50.33;;;38.37;;
2674;SDS011;1347;42.122;24.746;2024-01-07T07:36:09;45.93;;;37.67;;
2674;SDS011;1347;42.122;24.746;2024-01-07T07:38:36;44.40;;;35.90;;
2674;SDS011;1347;42.122;24.746;2024-01-07T07:41:02;37.50;;;33.37;;
2674;SDS011;1347;42.122;24.746;2024-01-07T07:43:30;40.47;;;34.27;;
2674;SDS011;1347;42.122;24.746;2024-01-07T07:45:56;47.23;;;33.37;;
2674;SDS011;1347;42.122;24.746;2024-01-07T07:48:24;35.07;;;29.40;;
2674;SDS011;1347;42.122;24.746;2024-01-07T07:50:54;40.67;;;32.90;;
2674;SDS011;1347;42.122;24.746;2024-01-07T07:53:21;34.93;;;30.23;;
2674;SDS011;1347;42.122;24.746;2024-01-07T07:55:48;36.50;;;31.47;;
2674;SDS011;1347;42.122;24.746;2024-01-07T07:58:15;41.23;;;32.30;;
2674;SDS011;1347;42.122;24.746;2024-01-07T08:00:42;47.17;;;35.20;;
2674;SDS011;1347;42.122;24.746;2024-01-07T08:03:10;38.97;;;32.53;;
2674;SDS011;1347;42.122;24.746;2024-01-07T08:05:36;46.53;;;33.10;;
2674;SDS011;1347;42.122;24.746;2024-01-07T08:08:05;38.73;;;31.43;;
2674;SDS011;1347;42.122;24.746;2024-01-07T08:10:32;48.90;;;33.90;;
2674;SDS011;1347;42.122;24.746;2024-01-07T08:16:21;45.17;;;34.93;;
2674;SDS011;1347;42.122;24.746;2024-01-07T08:18:48;42.67;;;32.97;;
2674;SDS011;1347;42.122;24.746;2024-01-07T08:21:15;42.67;;;35.83;;
2674;SDS011;1347;42.122;24.746;2024-01-07T08:23:43;38.77;;;31.27;;
2674;SDS011;1347;42.122;24.746;2024-01-07T08:26:10;44.27;;;34.37;;
2674;SDS011;1347;42.122;24.746;2024-01-07T08:28:37;42.13;;;34.77;;
2674;SDS011;1347;42.122;24.746;2024-01-07T08:31:05;47.47;;;39.37;;
2674;SDS011;1347;42.122;24.746;2024-01-07T08:33:32;50.63;;;39.53;;
2674;SDS011;1347;42.122;24.746;2024-01-07T08:35:59;42.80;;;36.40;;
2674;SDS011;1347;42.122;24.746;2024-01-07T08:38:26;45.27;;;37.37;;
2674;SDS011;1347;42.122;24.746;2024-01-07T08:40:54;39.53;;;33.20;;
2674;SDS011;1347;42.122;24.746;2024-01-07T08:43:21;37.00;;;31.90;;
2674;SDS011;1347;42.122;24.746;2024-01-07T08:45:48;34.37;;;27.87;;
2674;SDS011;1347;42.122;24.746;2024-01-07T08:48:15;35.17;;;29.50;;
2674;SDS011;1347;42.122;24.746;2024-01-07T08:50:43;41.07;;;30.37;;
2674;SDS011;1347;42.122;24.746;2024-01-07T08:53:11;39.47;;;29.93;;
2674;SDS011;1347;42.122;24.746;2024-01-07T08:55:39;38.43;;;31.30;;
2674;SDS011;1347;42.122;24.746;2024-01-07T08:58:08;34.43;;;29.73;;
2674;SDS011;1347;42.122;24.746;2024-01-07T09:00:34;36.43;;;29.63;;
2674;SDS011;1347;42.122;24.746;2024-01-07T09:03:01;33.27;;;29.33;;
2674;SDS011;1347;42.122;24.746;2024-01-07T09:05:29;35.90;;;30.70;;
2674;SDS011;1347;42.122;24.746;2024-01-07T09:07:56;34.57;;;29.20;;
2674;SDS011;1347;42.122;24.746;2024-01-07T09:10:23;33.50;;;26.93;;
2674;SDS011;1347;42.122;24.746;2024-01-07T09:12:50;39.77;;;31.70;;
2674;SDS011;1347;42.122;24.746;2024-01-07T09:15:19;29.60;;;25.47;;
2674;SDS011;1347;42.122;24.746;2024-01-07T09:17:47;33.03;;;25.80;;
2674;SDS011;1347;42.122;24.746;2024-01-07T09:20:14;29.97;;;24.00;;
2674;SDS011;1347;42.122;24.746;2024-01-07T09:22:40;31.60;;;25.07;;
2674;SDS011;1347;42.122;24.746;2024-01-07T09:25:09;30.87;;;25.03;;
2674;SDS011;1347;42.122;24.746;2024-01-07T09:27:36;30.43;;;27.13;;
2674;SDS011;1347;42.122;24.746;2024-01-07T09:30:03;36.10;;;25.40;;
2674;SDS011;1347;42.122;24.746;2024-01-07T09:32:32;30.90;;;24.53;;
2674;SDS011;1347;42.122;24.746;2024-01-07T09:34:59;34.47;;;24.13;;
2674;SDS011;1347;42.122;24.746;2024-01-07T09:37:26;28.03;;;23.97;;
2674;SDS011;1347;42.122;24.746;2024-01-07T09:39:52;28.47;;;22.07;;
2674;SDS011;1347;42.122;24.746;2024-01-07T09:42:20;29.10;;;24.07;;
2674;SDS011;1347;42.122;24.746;2024-01-07T09:44:47;27.23;;;24.20;;
2674;SDS011;1347;42.122;24.746;2024-01-07T09:47:16;24.80;;;22.23;;
2674;SDS011;1347;42.122;24.746;2024-01-07T09:53:08;25.27;;;22.03;;
2674;SDS011;1347;42.122;24.746;2024-01-07T09:55:45;29.20;;;22.60;;
2674;SDS011;1347;42.122;24.746;2024-01-07T09:58:20;24.20;;;21.60;;
2674;SDS011;1347;42.122;24.746;2024-01-07T10:00:47;25.03;;;20.30;;
2674;SDS011;1347;42.122;24.746;2024-01-07T10:03:14;23.07;;;20.50;;
2674;SDS011;1347;42.122;24.746;2024-01-07T10:05:41;21.70;;;17.57;;
2674;SDS011;1347;42.122;24.746;2024-01-07T10:08:09;22.47;;;18.30;;
2674;SDS011;1347;42.122;24.746;2024-01-07T10:10:36;23.70;;;18.63;;
2674;SDS011;1347;42.122;24.746;2024-01-07T10:13:05;22.20;;;17.70;;
2674;SDS011;1347;42.122;24.746;2024-01-07T10:15:33;21.60;;;18.70;;
2674;SDS011;1347;42.122;24.746;2024-01-07T10:18:02;19.80;;;16.37;;
2674;SDS011;1347;42.122;24.746;2024-01-07T10:20:31;17.80;;;15.90;;
2674;SDS011;1347;42.122;24.746;2024-01-07T10:22:59;23.10;;;14.77;;
2674;SDS011;1347;42.122;24.746;2024-01-07T10:25:27;20.33;;;15.60;;
2674;SDS011;1347;42.122;24.746;2024-01-07T10:27:58;15.13;;;12.67;;
2674;SDS011;1347;42.122;24.746;2024-01-07T10:30:25;13.43;;;11.37;;
2674;SDS011;1347;42.122;24.746;2024-01-07T10:32:55;14.07;;;12.57;;
2674;SDS011;1347;42.122;24.746;2024-01-07T10:38:44;20.20;;;15.17;;
2674;SDS011;1347;42.122;24.746;2024-01-07T10:41:13;16.73;;;13.63;;
2674;SDS011;1347;42.122;24.746;2024-01-07T10:43:41;17.07;;;12.50;;
2674;SDS011;1347;42.122;24.746;2024-01-07T10:46:12;15.57;;;13.77;;
2674;SDS011;1347;42.122;24.746;2024-01-07T10:48:42;18.00;;;14.03;;
2674;SDS011;1347;42.122;24.746;2024-01-07T10:51:17;17.23;;;12.77;;
2674;SDS011;1347;42.122;24.746;2024-01-07T10:53:49;18.13;;;12.80;;
2674;SDS011;1347;42.122;24.746;2024-01-07T10:56:21;20.07;;;14.17;;
2674;SDS011;1347;42.122;24.746;2024-01-07T10:58:50;17.10;;;13.83;;
2674;SDS011;1347;42.122;24.746;2024-01-07T11:01:18;22.53;;;15.60;;
2674;SDS011;1347;42.122;24.746;2024-01-07T11:07:11;17.43;;;14.13;;
2674;SDS011;1347;42.122;24.746;2024-01-07T11:09:47;18.20;;;16.30;;
2674;SDS011;1347;42.122;24.746;2024-01-07T11:15:54;19.03;;;15.23;;
2674;SDS011;1347;42.122;24.746;2024-01-07T11:18:21;18.27;;;14.20;;
2674;SDS011;1347;42.122;24.746;2024-01-07T11:20:49;20.77;;;14.50;;
2674;SDS011;1347;42.122;24.746;2024-01-07T11:23:25;12.00;;;9.03;;
2674;SDS011;1347;42.122;24.746;2024-01-07T11:25:53;8.30;;;7.50;;
2674;SDS011;1347;42.122;24.746;2024-01-07T11:31:44;9.40;;;8.40;;
2674;SDS011;1347;42.122;24.746;2024-01-07T11:37:35;10.20;;;8.50;;
2674;SDS011;1347;42.122;24.746;2024-01-07T11:43:24;10.17;;;7.40;;
2674;SDS011;1347;42.122;24.746;2024-01-07T11:45:50;13.53;;;8.53;;
2674;SDS011;1347;42.122;24.746;2024-01-07T11:51:43;14.40;;;9.40;;
2674;SDS011;1347;42.122;24.746;2024-01-07T11:54:10;12.07;;;9.33;;
2674;SDS011;1347;42.122;24.746;2024-01-07T11:56:39;10.10;;;7.50;;
2674;SDS011;1347;42.122;24.746;2024-01-07T11:59:06;9.50;;;5.90;;
2674;SDS011;1347;42.122;24.746;2024-01-07T12:01:33;14.03;;;8.03;;
2674;SDS011;1347;42.122;24.746;2024-01-07T12:04:00;7.10;;;4.90;;
2674;SDS011;1347;42.122;24.746;2024-01-07T12:06:27;10.30;;;6.67;;
2674;SDS011;1347;42.122;24.746;2024-01-07T12:08:55;7.17;;;5.47;;
2674;SDS011;1347;42.122;24.746;2024-01-07T12:11:22;11.83;;;8.30;;
2674;SDS011;1347;42.122;24.746;2024-01-07T12:13:49;13.30;;;9.67;;
2674;SDS011;1347;42.122;24.746;2024-01-07T12:16:16;13.90;;;9.43;;
2674;SDS011;1347;42.122;24.746;2024-01-07T12:18:43;10.77;;;9.70;;
2674;SDS011;1347;42.122;24.746;2024-01-07T12:21:10;14.60;;;8.20;;
2674;SDS011;1347;42.122;24.746;2024-01-07T12:27:04;15.50;;;9.40;;
2674;SDS011;1347;42.122;24.746;2024-01-07T12:29:32;15.00;;;9.83;;
2674;SDS011;1347;42.122;24.746;2024-01-07T12:31:59;12.70;;;9.90;;
2674;SDS011;1347;42.122;24.746;2024-01-07T12:37:49;12.20;;;7.70;;
2674;SDS011;1347;42.122;24.746;2024-01-07T12:43:39;14.77;;;8.37;;
2674;SDS011;1347;42.122;24.746;2024-01-07T12:46:06;14.57;;;9.30;;
2674;SDS011;1347;42.122;24.746;2024-01-07T12:48:33;12.63;;;9.00;;
2674;SDS011;1347;42.122;24.746;2024-01-07T12:51:00;10.20;;;9.10;;
2674;SDS011;1347;42.122;24.746;2024-01-07T12:53:27;17.53;;;8.57;;
2674;SDS011;1347;42.122;24.746;2024-01-07T12:55:54;13.20;;;8.30;;
2674;SDS011;1347;42.122;24.746;2024-01-07T12:58:21;12.00;;;9.20;;
2674;SDS011;1347;42.122;24.746;2024-01-07T13:00:49;13.63;;;8.00;;
2674;SDS011;1347;42.122;24.746;2024-01-07T13:03:16;16.40;;;10.13;;
2674;SDS011;1347;42.122;24.746;2024-01-07T13:05:44;11.40;;;6.93;;
2674;SDS011;1347;42.122;24.746;2024-01-07T13:08:13;13.23;;;7.90;;
2674;SDS011;1347;42.122;24.746;2024-01-07T13:10:41;13.53;;;9.17;;
2674;SDS011;1347;42.122;24.746;2024-01-07T13:13:08;21.73;;;9.27;;
2674;SDS011;1347;42.122;24.746;2024-01-07T13:15:35;16.93;;;9.03;;
2674;SDS011;1347;42.122;24.746;2024-01-07T13:18:04;16.30;;;7.60;;
2674;SDS011;1347;42.122;24.746;2024-01-07T13:20:31;11.70;;;8.10;;
2674;SDS011;1347;42.122;24.746;2024-01-07T13:22:59;10.23;;;5.97;;
2674;SDS011;1347;42.122;24.746;2024-01-07T13:25:26;10.57;;;7.10;;
2674;SDS011;1347;42.122;24.746;2024-01-07T13:27:53;9.77;;;7.13;;
2674;SDS011;1347;42.122;24.746;2024-01-07T13:30:20;13.10;;;5.90;;
2674;SDS011;1347;42.122;24.746;2024-01-07T13:32:47;16.50;;;5.57;;
2674;SDS011;1347;42.122;24.746;2024-01-07T13:35:16;16.03;;;5.90;;
2674;SDS011;1347;42.122;24.746;2024-01-07T13:37:43;13.40;;;5.13;;
2674;SDS011;1347;42.122;24.746;2024-01-07T13:40:12;15.37;;;5.37;;
2674;SDS011;1347;42.122;24.746;2024-01-07T13:42:39;12.93;;;5.80;;
2674;SDS011;1347;42.122;24.746;2024-01-07T13:45:06;14.23;;;5.63;;
2674;SDS011;1347;42.122;24.746;2024-01-07T13:47:33;14.20;;;6.53;;
2674;SDS011;1347;42.122;24.746;2024-01-07T13:50:00;10.90;;;6.80;;
2674;SDS011;1347;42.122;24.746;2024-01-07T13:52:30;19.83;;;7.70;;
2674;SDS011;1347;42.122;24.746;2024-01-07T13:54:57;19.90;;;9.20;;
2674;SDS011;1347;42.122;24.746;2024-01-07T13:57:23;15.27;;;9.80;;
2674;SDS011;1347;42.122;24.746;2024-01-07T13:59:50;14.93;;;9.17;;
2674;SDS011;1347;42.122;24.746;2024-01-07T14:02:17;13.50;;;6.77;;
2674;SDS011;1347;42.122;24.746;2024-01-07T14:08:07;12.03;;;8.17;;
2674;SDS011;1347;42.122;24.746;2024-01-07T14:13:55;20.10;;;9.37;;
2674;SDS011;1347;42.122;24.746;2024-01-07T14:16:22;17.53;;;9.60;;
2674;SDS011;1347;42.122;24.746;2024-01-07T14:18:49;24.40;;;9.43;;
2674;SDS011;1347;42.122;24.746;2024-01-07T14:21:16;27.10;;;12.33;;
2674;SDS011;1347;42.122;24.746;2024-01-07T14:23:44;24.17;;;11.90;;
2674;SDS011;1347;42.122;24.746;2024-01-07T14:26:11;17.80;;;10.90;;
2674;SDS011;1347;42.122;24.746;2024-01-07T14:28:38;20.37;;;11.50;;
2674;SDS011;1347;42.122;24.746;2024-01-07T14:31:05;22.93;;;12.20;;
2674;SDS011;1347;42.122;24.746;2024-01-07T14:33:32;20.17;;;10.40;;
2674;SDS011;1347;42.122;24.746;2024-01-07T14:35:59;19.07;;;12.80;;
2674;SDS011;1347;42.122;24.746;2024-01-07T14:38:25;21.87;;;12.33;;
2674;SDS011;1347;42.122;24.746;2024-01-07T14:40:54;17.87;;;8.90;;
2674;SDS011;1347;42.122;24.746;2024-01-07T14:43:22;15.53;;;8.80;;
2674;SDS011;1347;42.122;24.746;2024-01-07T14:45:49;14.60;;;9.43;;
2674;SDS011;1347;42.122;24.746;2024-01-07T14:48:18;17.50;;;12.27;;
2674;SDS011;1347;42.122;24.746;2024-01-07T14:50:45;18.03;;;11.07;;
2674;SDS011;1347;42.122;24.746;2024-01-07T14:53:13;16.67;;;9.80;;
2674;SDS011;1347;42.122;24.746;2024-01-07T14:55:40;27.80;;;17.20;;
2674;SDS011;1347;42.122;24.746;2024-01-07T14:58:08;24.83;;;15.50;;
2674;SDS011;1347;42.122;24.746;2024-01-07T15:00:35;21.90;;;14.87;;
2674;SDS011;1347;42.122;24.746;2024-01-07T15:03:02;19.10;;;14.50;;
2674;SDS011;1347;42.122;24.746;2024-01-07T15:05:29;23.27;;;13.40;;
2674;SDS011;1347;42.122;24.746;2024-01-07T15:07:56;21.90;;;14.00;;
2674;SDS011;1347;42.122;24.746;2024-01-07T15:10:23;23.33;;;15.87;;
2674;SDS011;1347;42.122;24.746;2024-01-07T15:12:50;21.30;;;13.20;;
2674;SDS011;1347;42.122;24.746;2024-01-07T15:15:18;38.43;;;24.47;;
2674;SDS011;1347;42.122;24.746;2024-01-07T15:17:47;24.87;;;19.77;;
2674;SDS011;1347;42.122;24.746;2024-01-07T15:20:14;25.07;;;17.07;;
2674;SDS011;1347;42.122;24.746;2024-01-07T15:22:41;37.70;;;22.97;;
2674;SDS011;1347;42.122;24.746;2024-01-07T15:25:08;30.53;;;22.83;;
2674;SDS011;1347;42.122;24.746;2024-01-07T15:27:35;39.57;;;20.50;;
2674;SDS011;1347;42.122;24.746;2024-01-07T15:30:02;29.47;;;17.90;;
2674;SDS011;1347;42.122;24.746;2024-01-07T15:32:33;28.57;;;18.33;;
2674;SDS011;1347;42.122;24.746;2024-01-07T15:35:00;24.37;;;17.90;;